sensor_id;sensor_type;location;lat;lon;timestamp;pressure;altitude;pressure_sealevel;temperature;humidity
60240;BME280;46102;39.012;-7.064;2023-01-15T00:01:26;99471.44;;;7.40;100.00
60240;BME280;46102;39.012;-7.064;2023-01-15T00:03:28;99469.81;;;7.39;100.00
60240;BME280;46102;39.012;-7.064;2023-01-15T00:05:28;99471.72;;;7.38;100.00
60240;BME280;46102;39.012;-7.064;2023-01-15T00:07:30;99469.53;;;7.40;100.00
60240;BME280;46102;39.012;-7.064;2023-01-15T00:09:31;99472.00;;;7.37;100.00
60240;BME280;46102;39.012;-7.064;2023-01-15T00:11:31;99464.91;;;7.36;100.00
60240;BME280;46102;39.012;-7.064;2023-01-15T00:13:33;99464.34;;;7.34;100.00
60240;BME280;46102;39.012;-7.064;2023-01-15T00:15:34;99467.06;;;7.34;100.00
60240;BME280;46102;39.012;-7.064;2023-01-15T00:17:35;99463.28;;;7.35;100.00
60240;BME280;46102;39.012;-7.064;2023-01-15T00:19:36;99472.53;;;7.34;100.00
60240;BME280;46102;39.012;-7.064;2023-01-15T00:21:37;99467.91;;;7.34;100.00
60240;BME280;46102;39.012;-7.064;2023-01-15T00:23:38;99467.63;;;7.36;100.00
60240;BME280;46102;39.012;-7.064;2023-01-15T00:25:57;99469.81;;;7.34;100.00
60240;BME280;46102;39.012;-7.064;2023-01-15T00:28:17;99466.00;;;7.35;100.00
60240;BME280;46102;39.012;-7.064;2023-01-15T00:30:19;99459.44;;;7.36;100.00
60240;BME280;46102;39.012;-7.064;2023-01-15T00:32:20;99451.81;;;7.33;100.00
60240;BME280;46102;39.012;-7.064;2023-01-15T00:34:21;99452.63;;;7.33;100.00
60240;BME280;46102;39.012;-7.064;2023-01-15T00:36:22;99443.31;;;7.29;100.00
60240;BME280;46102;39.012;-7.064;2023-01-15T00:38:23;99452.06;;;7.26;100.00
60240;BME280;46102;39.012;-7.064;2023-01-15T00:40:23;99453.97;;;7.20;99.96
60240;BME280;46102;39.012;-7.064;2023-01-15T00:42:25;99449.34;;;7.16;99.91
60240;BME280;46102;39.012;-7.064;2023-01-15T00:44:26;99443.34;;;7.08;99.30
60240;BME280;46102;39.012;-7.064;2023-01-15T00:46:26;99449.34;;;7.00;98.61
60240;BME280;46102;39.012;-7.064;2023-01-15T00:48:27;99444.97;;;6.94;99.23
60240;BME280;46102;39.012;-7.064;2023-01-15T00:50:28;99442.50;;;6.87;98.94
60240;BME280;46102;39.012;-7.064;2023-01-15T00:52:29;99445.75;;;6.84;99.10
60240;BME280;46102;39.012;-7.064;2023-01-15T00:54:30;99439.25;;;6.80;99.04
60240;BME280;46102;39.012;-7.064;2023-01-15T00:56:32;99432.94;;;6.80;99.01
60240;BME280;46102;39.012;-7.064;2023-01-15T00:58:33;99439.50;;;6.79;99.58
60240;BME280;46102;39.012;-7.064;2023-01-15T01:00:34;99436.47;;;6.75;99.55
60240;BME280;46102;39.012;-7.064;2023-01-15T01:02:35;99447.69;;;6.74;99.65
60240;BME280;46102;39.012;-7.064;2023-01-15T01:04:35;99444.66;;;6.70;99.81
60240;BME280;46102;39.012;-7.064;2023-01-15T01:06:36;99435.94;;;6.68;100.00
60240;BME280;46102;39.012;-7.064;2023-01-15T01:08:37;99434.84;;;6.69;99.82
60240;BME280;46102;39.012;-7.064;2023-01-15T01:10:38;99424.75;;;6.70;99.94
60240;BME280;46102;39.012;-7.064;2023-01-15T01:12:38;99431.31;;;6.74;100.00
60240;BME280;46102;39.012;-7.064;2023-01-15T01:14:39;99428.03;;;6.77;99.90
60240;BME280;46102;39.012;-7.064;2023-01-15T01:16:40;99432.13;;;6.79;99.62
60240;BME280;46102;39.012;-7.064;2023-01-15T01:18:41;99423.94;;;6.79;99.54
60240;BME280;46102;39.012;-7.064;2023-01-15T01:20:42;99420.41;;;6.79;99.57
60240;BME280;46102;39.012;-7.064;2023-01-15T01:22:43;99418.50;;;6.79;99.38
60240;BME280;46102;39.012;-7.064;2023-01-15T01:24:44;99422.56;;;6.82;99.33
60240;BME280;46102;39.012;-7.064;2023-01-15T01:26:45;99418.78;;;6.83;99.11
60240;BME280;46102;39.012;-7.064;2023-01-15T01:28:50;99413.03;;;6.84;99.40
60240;BME280;46102;39.012;-7.064;2023-01-15T01:30:51;99416.31;;;6.86;99.41
60240;BME280;46102;39.012;-7.064;2023-01-15T01:32:51;99413.31;;;6.88;99.18
60240;BME280;46102;39.012;-7.064;2023-01-15T01:34:52;99410.31;;;6.90;99.40
60240;BME280;46102;39.012;-7.064;2023-01-15T01:36:53;99409.78;;;6.87;98.73
60240;BME280;46102;39.012;-7.064;2023-01-15T01:38:54;99414.13;;;6.88;99.39
60240;BME280;46102;39.012;-7.064;2023-01-15T01:40:54;99411.94;;;6.91;99.12
60240;BME280;46102;39.012;-7.064;2023-01-15T01:42:55;99416.84;;;6.88;99.42
60240;BME280;46102;39.012;-7.064;2023-01-15T01:45:03;99404.31;;;6.87;99.29
60240;BME280;46102;39.012;-7.064;2023-01-15T01:47:17;99410.03;;;6.86;98.39
60240;BME280;46102;39.012;-7.064;2023-01-15T01:49:22;99407.56;;;6.84;98.43
60240;BME280;46102;39.012;-7.064;2023-01-15T01:51:26;99402.41;;;6.83;98.44
60240;BME280;46102;39.012;-7.064;2023-01-15T01:53:30;99407.06;;;6.82;98.31
60240;BME280;46102;39.012;-7.064;2023-01-15T01:55:33;99405.41;;;6.81;98.04
60240;BME280;46102;39.012;-7.064;2023-01-15T01:57:36;99405.41;;;6.81;98.34
60240;BME280;46102;39.012;-7.064;2023-01-15T01:59:38;99405.66;;;6.80;98.51
60240;BME280;46102;39.012;-7.064;2023-01-15T02:01:39;99401.06;;;6.80;98.07
60240;BME280;46102;39.012;-7.064;2023-01-15T02:03:40;99404.03;;;6.79;98.27
60240;BME280;46102;39.012;-7.064;2023-01-15T02:05:46;99393.94;;;6.79;98.45
60240;BME280;46102;39.012;-7.064;2023-01-15T02:07:48;99400.22;;;6.80;98.28
60240;BME280;46102;39.012;-7.064;2023-01-15T02:09:49;99392.03;;;6.75;99.05
60240;BME280;46102;39.012;-7.064;2023-01-15T02:11:50;99401.84;;;6.71;99.11
60240;BME280;46102;39.012;-7.064;2023-01-15T02:20:29;99399.66;;;6.73;98.81
60240;BME280;46102;39.012;-7.064;2023-01-15T02:22:48;99404.84;;;6.74;99.28
60240;BME280;46102;39.012;-7.064;2023-01-15T02:27:18;99410.31;;;6.74;99.22
60240;BME280;46102;39.012;-7.064;2023-01-15T02:29:36;99407.84;;;6.73;99.16
60240;BME280;46102;39.012;-7.064;2023-01-15T02:31:41;99405.66;;;6.70;98.99
60240;BME280;46102;39.012;-7.064;2023-01-15T02:34:05;99397.19;;;6.66;98.51
60240;BME280;46102;39.012;-7.064;2023-01-15T02:36:14;99397.50;;;6.64;98.55
60240;BME280;46102;39.012;-7.064;2023-01-15T02:38:21;99396.38;;;6.65;98.54
60240;BME280;46102;39.012;-7.064;2023-01-15T02:40:27;99391.22;;;6.69;98.94
60240;BME280;46102;39.012;-7.064;2023-01-15T02:42:29;99400.47;;;6.73;99.38
60240;BME280;46102;39.012;-7.064;2023-01-15T02:44:35;99407.59;;;6.79;99.65
60240;BME280;46102;39.012;-7.064;2023-01-15T02:46:38;99402.66;;;6.86;100.00
60240;BME280;46102;39.012;-7.064;2023-01-15T02:48:50;99400.50;;;6.94;99.99
60240;BME280;46102;39.012;-7.064;2023-01-15T02:51:04;99406.78;;;6.99;100.00
60240;BME280;46102;39.012;-7.064;2023-01-15T02:53:09;99406.22;;;7.02;99.58
60240;BME280;46102;39.012;-7.064;2023-01-15T02:55:17;99403.78;;;7.06;99.50
60240;BME280;46102;39.012;-7.064;2023-01-15T02:57:21;99410.88;;;7.12;99.20
60240;BME280;46102;39.012;-7.064;2023-01-15T02:59:34;99410.31;;;7.15;100.00
60240;BME280;46102;39.012;-7.064;2023-01-15T03:01:42;99417.13;;;7.18;100.00
60240;BME280;46102;39.012;-7.064;2023-01-15T03:03:50;99411.41;;;7.24;100.00
60240;BME280;46102;39.012;-7.064;2023-01-15T03:06:03;99407.03;;;7.28;100.00
60240;BME280;46102;39.012;-7.064;2023-01-15T03:08:07;99413.59;;;7.33;100.00
60240;BME280;46102;39.012;-7.064;2023-01-15T03:10:10;99413.56;;;7.38;100.00
60240;BME280;46102;39.012;-7.064;2023-01-15T03:12:15;99408.38;;;7.41;100.00
60240;BME280;46102;39.012;-7.064;2023-01-15T03:14:23;99410.56;;;7.44;100.00
60240;BME280;46102;39.012;-7.064;2023-01-15T03:16:44;99404.53;;;7.47;100.00
60240;BME280;46102;39.012;-7.064;2023-01-15T03:19:19;99404.28;;;7.49;100.00
60240;BME280;46102;39.012;-7.064;2023-01-15T03:21:30;99402.09;;;7.51;100.00
60240;BME280;46102;39.012;-7.064;2023-01-15T03:23:37;99395.53;;;7.52;100.00
60240;BME280;46102;39.012;-7.064;2023-01-15T03:25:42;99391.44;;;7.55;100.00
60240;BME280;46102;39.012;-7.064;2023-01-15T03:27:46;99389.25;;;7.57;100.00
60240;BME280;46102;39.012;-7.064;2023-01-15T03:29:54;99382.97;;;7.61;100.00
60240;BME280;46102;39.012;-7.064;2023-01-15T03:31:55;99372.56;;;7.58;100.00
60240;BME280;46102;39.012;-7.064;2023-01-15T03:33:56;99370.66;;;7.59;100.00
60240;BME280;46102;39.012;-7.064;2023-01-15T03:35:59;99373.91;;;7.61;100.00
60240;BME280;46102;39.012;-7.064;2023-01-15T03:38:08;99360.28;;;7.61;100.00
60240;BME280;46102;39.012;-7.064;2023-01-15T03:40:09;99351.00;;;7.62;100.00
60240;BME280;46102;39.012;-7.064;2023-01-15T03:42:31;99349.06;;;7.62;100.00
60240;BME280;46102;39.012;-7.064;2023-01-15T03:49:39;99346.91;;;7.59;99.87
60240;BME280;46102;39.012;-7.064;2023-01-15T03:51:56;99355.09;;;7.54;100.00
60240;BME280;46102;39.012;-7.064;2023-01-15T03:54:02;99360.84;;;7.53;100.00
60240;BME280;46102;39.012;-7.064;2023-01-15T03:58:24;99354.84;;;7.56;100.00
60240;BME280;46102;39.012;-7.064;2023-01-15T04:00:50;99367.09;;;7.58;100.00
60240;BME280;46102;39.012;-7.064;2023-01-15T04:02:55;99370.38;;;7.60;100.00
60240;BME280;46102;39.012;-7.064;2023-01-15T04:05:01;99358.38;;;7.61;100.00
60240;BME280;46102;39.012;-7.064;2023-01-15T04:07:03;99357.00;;;7.64;100.00
60240;BME280;46102;39.012;-7.064;2023-01-15T04:09:07;99356.19;;;7.63;100.00
60240;BME280;46102;39.012;-7.064;2023-01-15T04:11:10;99344.19;;;7.59;100.00
60240;BME280;46102;39.012;-7.064;2023-01-15T04:13:19;99346.63;;;7.61;100.00
60240;BME280;46102;39.012;-7.064;2023-01-15T04:15:20;99334.59;;;7.62;100.00
60240;BME280;46102;39.012;-7.064;2023-01-15T04:17:21;99344.19;;;7.59;100.00
60240;BME280;46102;39.012;-7.064;2023-01-15T04:19:21;99355.34;;;7.63;100.00
60240;BME280;46102;39.012;-7.064;2023-01-15T04:21:29;99355.38;;;7.58;100.00
60240;BME280;46102;39.012;-7.064;2023-01-15T04:23:30;99346.38;;;7.57;100.00
60240;BME280;46102;39.012;-7.064;2023-01-15T04:25:31;99353.75;;;7.57;100.00
60240;BME280;46102;39.012;-7.064;2023-01-15T04:27:32;99353.75;;;7.51;100.00
60240;BME280;46102;39.012;-7.064;2023-01-15T04:29:33;99352.41;;;7.49;100.00
60240;BME280;46102;39.012;-7.064;2023-01-15T04:31:34;99351.59;;;7.48;100.00
60240;BME280;46102;39.012;-7.064;2023-01-15T04:33:35;99353.19;;;7.49;100.00
60240;BME280;46102;39.012;-7.064;2023-01-15T04:35:36;99351.31;;;7.50;100.00
60240;BME280;46102;39.012;-7.064;2023-01-15T04:37:37;99352.13;;;7.50;100.00
60240;BME280;46102;39.012;-7.064;2023-01-15T04:39:38;99347.75;;;7.55;100.00
60240;BME280;46102;39.012;-7.064;2023-01-15T04:41:39;99341.44;;;7.54;100.00
60240;BME280;46102;39.012;-7.064;2023-01-15T04:43:58;99344.75;;;7.51;100.00
60240;BME280;46102;39.012;-7.064;2023-01-15T04:46:08;99353.50;;;7.48;100.00
60240;BME280;46102;39.012;-7.064;2023-01-15T04:48:09;99355.94;;;7.49;100.00
60240;BME280;46102;39.012;-7.064;2023-01-15T04:50:12;99356.47;;;7.57;100.00
60240;BME280;46102;39.012;-7.064;2023-01-15T04:52:13;99361.66;;;7.53;100.00
60240;BME280;46102;39.012;-7.064;2023-01-15T04:54:16;99358.66;;;7.55;100.00
60240;BME280;46102;39.012;-7.064;2023-01-15T04:56:17;99356.75;;;7.55;100.00
60240;BME280;46102;39.012;-7.064;2023-01-15T04:58:17;99357.84;;;7.59;100.00
60240;BME280;46102;39.012;-7.064;2023-01-15T05:00:18;99363.84;;;7.61;100.00
60240;BME280;46102;39.012;-7.064;2023-01-15T05:02:19;99360.53;;;7.64;100.00
60240;BME280;46102;39.012;-7.064;2023-01-15T05:04:20;99363.00;;;7.66;100.00
60240;BME280;46102;39.012;-7.064;2023-01-15T05:06:21;99357.53;;;7.66;100.00
60240;BME280;46102;39.012;-7.064;2023-01-15T05:08:22;99354.81;;;7.66;100.00
60240;BME280;46102;39.012;-7.064;2023-01-15T05:10:22;99356.44;;;7.67;100.00
60240;BME280;46102;39.012;-7.064;2023-01-15T05:12:23;99361.09;;;7.66;100.00
60240;BME280;46102;39.012;-7.064;2023-01-15T05:14:24;99362.72;;;7.67;100.00
60240;BME280;46102;39.012;-7.064;2023-01-15T05:16:27;99349.31;;;7.71;100.00
60240;BME280;46102;39.012;-7.064;2023-01-15T05:18:28;99350.44;;;7.65;100.00
60240;BME280;46102;39.012;-7.064;2023-01-15T05:20:28;99354.25;;;7.59;100.00
60240;BME280;46102;39.012;-7.064;2023-01-15T05:22:29;99349.63;;;7.54;100.00
60240;BME280;46102;39.012;-7.064;2023-01-15T05:24:30;99352.66;;;7.47;100.00
60240;BME280;46102;39.012;-7.064;2023-01-15T05:26:32;99358.94;;;7.43;100.00
60240;BME280;46102;39.012;-7.064;2023-01-15T05:28:32;99357.06;;;7.38;100.00
60240;BME280;46102;39.012;-7.064;2023-01-15T05:30:34;99364.72;;;7.41;100.00
60240;BME280;46102;39.012;-7.064;2023-01-15T05:32:35;99355.41;;;7.42;100.00
60240;BME280;46102;39.012;-7.064;2023-01-15T05:34:36;99359.78;;;7.43;100.00
60240;BME280;46102;39.012;-7.064;2023-01-15T05:36:37;99366.88;;;7.44;100.00
60240;BME280;46102;39.012;-7.064;2023-01-15T05:38:38;99369.88;;;7.48;100.00
60240;BME280;46102;39.012;-7.064;2023-01-15T05:40:39;99352.66;;;7.47;100.00
60240;BME280;46102;39.012;-7.064;2023-01-15T05:42:40;99358.41;;;7.46;100.00
60240;BME280;46102;39.012;-7.064;2023-01-15T05:44:40;99355.69;;;7.46;100.00
60240;BME280;46102;39.012;-7.064;2023-01-15T05:46:42;99352.16;;;7.45;100.00
60240;BME280;46102;39.012;-7.064;2023-01-15T05:48:44;99364.97;;;7.45;100.00
60240;BME280;46102;39.012;-7.064;2023-01-15T05:50:44;99360.03;;;7.47;100.00
60240;BME280;46102;39.012;-7.064;2023-01-15T05:52:45;99357.59;;;7.45;100.00
60240;BME280;46102;39.012;-7.064;2023-01-15T05:54:48;99365.78;;;7.50;100.00
60240;BME280;46102;39.012;-7.064;2023-01-15T05:56:49;99376.16;;;7.48;100.00
60240;BME280;46102;39.012;-7.064;2023-01-15T05:58:50;99378.06;;;7.53;100.00
60240;BME280;46102;39.012;-7.064;2023-01-15T06:00:51;99372.84;;;7.51;100.00
60240;BME280;46102;39.012;-7.064;2023-01-15T06:02:54;99376.69;;;7.50;100.00
60240;BME280;46102;39.012;-7.064;2023-01-15T06:04:55;99375.31;;;7.53;100.00
60240;BME280;46102;39.012;-7.064;2023-01-15T06:06:56;99380.22;;;7.56;100.00
60240;BME280;46102;39.012;-7.064;2023-01-15T06:08:57;99390.31;;;7.61;100.00
60240;BME280;46102;39.012;-7.064;2023-01-15T06:10:58;99384.00;;;7.65;100.00
60240;BME280;46102;39.012;-7.064;2023-01-15T06:12:59;99382.66;;;7.68;100.00
60240;BME280;46102;39.012;-7.064;2023-01-15T06:15:00;99377.44;;;7.71;100.00
60240;BME280;46102;39.012;-7.064;2023-01-15T06:17:01;99377.44;;;7.71;100.00
60240;BME280;46102;39.012;-7.064;2023-01-15T06:19:05;99375.28;;;7.68;100.00
60240;BME280;46102;39.012;-7.064;2023-01-15T06:21:08;99371.19;;;7.66;100.00
60240;BME280;46102;39.012;-7.064;2023-01-15T06:23:09;99375.03;;;7.60;100.00
60240;BME280;46102;39.012;-7.064;2023-01-15T06:25:10;99369.03;;;7.58;100.00
60240;BME280;46102;39.012;-7.064;2023-01-15T06:27:11;99370.94;;;7.57;100.00
60240;BME280;46102;39.012;-7.064;2023-01-15T06:29:12;99376.41;;;7.57;100.00
60240;BME280;46102;39.012;-7.064;2023-01-15T06:31:18;99367.91;;;7.59;100.00
60240;BME280;46102;39.012;-7.064;2023-01-15T06:33:20;99369.31;;;7.61;100.00
60240;BME280;46102;39.012;-7.064;2023-01-15T06:35:20;99370.13;;;7.62;100.00
60240;BME280;46102;39.012;-7.064;2023-01-15T06:37:21;99363.03;;;7.56;100.00
60240;BME280;46102;39.012;-7.064;2023-01-15T06:39:22;99364.94;;;7.55;100.00
60240;BME280;46102;39.012;-7.064;2023-01-15T06:41:24;99370.66;;;7.54;100.00
60240;BME280;46102;39.012;-7.064;2023-01-15T06:44:01;99369.88;;;7.48;100.00
60240;BME280;46102;39.012;-7.064;2023-01-15T06:46:20;99373.44;;;7.48;100.00
60240;BME280;46102;39.012;-7.064;2023-01-15T06:48:40;99377.22;;;7.47;100.00
60240;BME280;46102;39.012;-7.064;2023-01-15T06:50:41;99383.81;;;7.46;100.00
60240;BME280;46102;39.012;-7.064;2023-01-15T06:52:41;99379.69;;;7.49;100.00
60240;BME280;46102;39.012;-7.064;2023-01-15T06:54:42;99378.88;;;7.48;100.00
60240;BME280;46102;39.012;-7.064;2023-01-15T06:56:43;99371.78;;;7.47;100.00
60240;BME280;46102;39.012;-7.064;2023-01-15T06:58:44;99374.00;;;7.45;100.00
60240;BME280;46102;39.012;-7.064;2023-01-15T07:00:44;99379.72;;;7.44;100.00
60240;BME280;46102;39.012;-7.064;2023-01-15T07:02:53;99378.91;;;7.43;100.00
60240;BME280;46102;39.012;-7.064;2023-01-15T07:04:53;99380.53;;;7.44;100.00
60240;BME280;46102;39.012;-7.064;2023-01-15T07:06:55;99368.25;;;7.42;100.00
60240;BME280;46102;39.012;-7.064;2023-01-15T07:08:56;99366.34;;;7.42;100.00
60240;BME280;46102;39.012;-7.064;2023-01-15T07:11:01;99367.72;;;7.35;100.00
60240;BME280;46102;39.012;-7.064;2023-01-15T07:13:02;99371.00;;;7.32;100.00
60240;BME280;46102;39.012;-7.064;2023-01-15T07:15:03;99369.09;;;7.32;100.00
60240;BME280;46102;39.012;-7.064;2023-01-15T07:17:04;99372.09;;;7.30;100.00
60240;BME280;46102;39.012;-7.064;2023-01-15T07:19:05;99369.38;;;7.30;100.00
60240;BME280;46102;39.012;-7.064;2023-01-15T07:21:06;99361.47;;;7.24;100.00
60240;BME280;46102;39.012;-7.064;2023-01-15T07:23:06;99356.28;;;7.17;100.00
60240;BME280;46102;39.012;-7.064;2023-01-15T07:25:08;99367.75;;;7.14;100.00
60240;BME280;46102;39.012;-7.064;2023-01-15T07:27:09;99369.94;;;7.12;100.00
60240;BME280;46102;39.012;-7.064;2023-01-15T07:29:10;99375.66;;;7.11;100.00
60240;BME280;46102;39.012;-7.064;2023-01-15T07:31:11;99385.50;;;7.12;100.00
60240;BME280;46102;39.012;-7.064;2023-01-15T07:33:12;99394.50;;;7.12;100.00
60240;BME280;46102;39.012;-7.064;2023-01-15T07:35:13;99386.88;;;7.14;100.00
60240;BME280;46102;39.012;-7.064;2023-01-15T07:37:14;99390.97;;;7.12;100.00
60240;BME280;46102;39.012;-7.064;2023-01-15T07:39:14;99392.59;;;7.13;100.00
60240;BME280;46102;39.012;-7.064;2023-01-15T07:41:15;99394.22;;;7.14;100.00
60240;BME280;46102;39.012;-7.064;2023-01-15T07:43:35;99393.94;;;7.15;100.00
60240;BME280;46102;39.012;-7.064;2023-01-15T07:45:54;99400.75;;;7.18;100.00
60240;BME280;46102;39.012;-7.064;2023-01-15T07:48:14;99401.84;;;7.22;100.00
60240;BME280;46102;39.012;-7.064;2023-01-15T07:50:33;99408.94;;;7.28;100.00
60240;BME280;46102;39.012;-7.064;2023-01-15T07:52:34;99407.59;;;7.30;100.00
60240;BME280;46102;39.012;-7.064;2023-01-15T07:54:34;99417.94;;;7.34;100.00
60240;BME280;46102;39.012;-7.064;2023-01-15T07:56:35;99427.22;;;7.38;100.00
60240;BME280;46102;39.012;-7.064;2023-01-15T07:58:36;99417.41;;;7.42;100.00
60240;BME280;46102;39.012;-7.064;2023-01-15T08:00:37;99415.22;;;7.44;100.00
60240;BME280;46102;39.012;-7.064;2023-01-15T08:02:39;99405.38;;;7.48;100.00
60240;BME280;46102;39.012;-7.064;2023-01-15T08:04:40;99404.00;;;7.50;100.00
60240;BME280;46102;39.012;-7.064;2023-01-15T08:06:40;99397.72;;;7.50;100.00
60240;BME280;46102;39.012;-7.064;2023-01-15T08:08:41;99402.34;;;7.49;100.00
60240;BME280;46102;39.012;-7.064;2023-01-15T08:10:42;99409.47;;;7.50;100.00
60240;BME280;46102;39.012;-7.064;2023-01-15T08:13:02;99405.94;;;7.50;100.00
60240;BME280;46102;39.012;-7.064;2023-01-15T08:15:21;99402.63;;;7.53;100.00
60240;BME280;46102;39.012;-7.064;2023-01-15T08:17:22;99403.44;;;7.54;100.00
60240;BME280;46102;39.012;-7.064;2023-01-15T08:19:23;99414.09;;;7.55;100.00
60240;BME280;46102;39.012;-7.064;2023-01-15T08:21:29;99418.47;;;7.61;100.00
60240;BME280;46102;39.012;-7.064;2023-01-15T08:23:29;99406.97;;;7.64;100.00
60240;BME280;46102;39.012;-7.064;2023-01-15T08:25:30;99416.78;;;7.70;100.00
60240;BME280;46102;39.012;-7.064;2023-01-15T08:27:31;99406.13;;;7.74;100.00
60240;BME280;46102;39.012;-7.064;2023-01-15T08:29:32;99412.66;;;7.78;100.00
60240;BME280;46102;39.012;-7.064;2023-01-15T08:31:33;99409.09;;;7.83;100.00
60240;BME280;46102;39.012;-7.064;2023-01-15T08:33:34;99405.81;;;7.86;100.00
60240;BME280;46102;39.012;-7.064;2023-01-15T08:35:34;99407.19;;;7.88;100.00
60240;BME280;46102;39.012;-7.064;2023-01-15T08:37:35;99403.84;;;7.97;100.00
60240;BME280;46102;39.012;-7.064;2023-01-15T08:39:36;99396.19;;;7.99;100.00
60240;BME280;46102;39.012;-7.064;2023-01-15T08:41:37;99404.13;;;8.00;100.00
60240;BME280;46102;39.012;-7.064;2023-01-15T08:43:38;99400.53;;;8.10;100.00
60240;BME280;46102;39.012;-7.064;2023-01-15T08:45:38;99407.53;;;8.31;100.00
60240;BME280;46102;39.012;-7.064;2023-01-15T08:47:39;99411.53;;;8.54;100.00
60240;BME280;46102;39.012;-7.064;2023-01-15T08:49:40;99396.50;;;8.91;100.00
60240;BME280;46102;39.012;-7.064;2023-01-15T08:51:43;99395.03;;;9.04;100.00
60240;BME280;46102;39.012;-7.064;2023-01-15T08:53:44;99405.16;;;9.04;100.00
60240;BME280;46102;39.012;-7.064;2023-01-15T08:55:46;99409.84;;;9.03;100.00
60240;BME280;46102;39.012;-7.064;2023-01-15T08:57:47;99405.16;;;9.04;100.00
60240;BME280;46102;39.012;-7.064;2023-01-15T08:59:47;99400.94;;;8.87;100.00
60240;BME280;46102;39.012;-7.064;2023-01-15T09:01:48;99401.81;;;8.78;100.00
60240;BME280;46102;39.012;-7.064;2023-01-15T09:03:49;99400.44;;;8.75;100.00
60240;BME280;46102;39.012;-7.064;2023-01-15T09:05:50;99410.31;;;8.76;100.00
60240;BME280;46102;39.012;-7.064;2023-01-15T09:07:50;99422.06;;;8.77;100.00
60240;BME280;46102;39.012;-7.064;2023-01-15T09:09:51;99424.28;;;8.74;100.00
60240;BME280;46102;39.012;-7.064;2023-01-15T09:11:52;99430.81;;;8.79;100.00
60240;BME280;46102;39.012;-7.064;2023-01-15T09:13:53;99435.72;;;8.82;100.00
60240;BME280;46102;39.012;-7.064;2023-01-15T09:15:59;99434.63;;;8.83;100.00
60240;BME280;46102;39.012;-7.064;2023-01-15T09:18:00;99437.59;;;8.86;100.00
60240;BME280;46102;39.012;-7.064;2023-01-15T09:20:00;99430.66;;;8.99;100.00
60240;BME280;46102;39.012;-7.064;2023-01-15T09:22:02;99427.34;;;9.02;100.00
60240;BME280;46102;39.012;-7.064;2023-01-15T09:24:03;99428.94;;;9.08;100.00
60240;BME280;46102;39.012;-7.064;2023-01-15T09:26:05;99432.25;;;9.05;100.00
60240;BME280;46102;39.012;-7.064;2023-01-15T09:28:07;99427.56;;;9.11;100.00
60240;BME280;46102;39.012;-7.064;2023-01-15T09:30:15;99447.47;;;9.22;100.00
60240;BME280;46102;39.012;-7.064;2023-01-15T09:32:16;99450.72;;;9.24;100.00
60240;BME280;46102;39.012;-7.064;2023-01-15T09:34:17;99447.72;;;9.20;100.00
60240;BME280;46102;39.012;-7.064;2023-01-15T09:36:25;99451.53;;;9.24;100.00
60240;BME280;46102;39.012;-7.064;2023-01-15T09:38:27;99457.50;;;9.31;100.00
60240;BME280;46102;39.012;-7.064;2023-01-15T09:40:51;99471.06;;;9.47;100.00
60240;BME280;46102;39.012;-7.064;2023-01-15T09:43:02;99472.03;;;9.61;100.00
60240;BME280;46102;39.012;-7.064;2023-01-15T09:45:19;99471.59;;;9.78;100.00
60240;BME280;46102;39.012;-7.064;2023-01-15T09:47:38;99478.88;;;9.88;100.00
60240;BME280;46102;39.012;-7.064;2023-01-15T09:52:11;99482.75;;;10.11;100.00
60240;BME280;46102;39.012;-7.064;2023-01-15T09:54:18;99486.19;;;10.21;100.00
60240;BME280;46102;39.012;-7.064;2023-01-15T09:56:26;99494.41;;;10.21;100.00
60240;BME280;46102;39.012;-7.064;2023-01-15T09:58:34;99500.16;;;10.25;100.00
60240;BME280;46102;39.012;-7.064;2023-01-15T10:00:39;99503.25;;;10.18;100.00
60240;BME280;46102;39.012;-7.064;2023-01-15T10:02:46;99499.19;;;10.11;100.00
60240;BME280;46102;39.012;-7.064;2023-01-15T10:04:53;99501.94;;;10.11;100.00
60240;BME280;46102;39.012;-7.064;2023-01-15T10:07:08;99498.69;;;10.09;100.00
60240;BME280;46102;39.012;-7.064;2023-01-15T10:09:22;99497.56;;;10.10;100.00
60240;BME280;46102;39.012;-7.064;2023-01-15T10:11:37;99506.53;;;10.15;100.00
60240;BME280;46102;39.012;-7.064;2023-01-15T10:14:02;99511.69;;;10.22;100.00
60240;BME280;46102;39.012;-7.064;2023-01-15T10:16:06;99511.94;;;10.26;100.00
60240;BME280;46102;39.012;-7.064;2023-01-15T10:18:13;99505.84;;;10.34;100.00
60240;BME280;46102;39.012;-7.064;2023-01-15T10:24:57;99509.41;;;10.53;100.00
60240;BME280;46102;39.012;-7.064;2023-01-15T10:26:58;99512.06;;;10.63;100.00
60240;BME280;46102;39.012;-7.064;2023-01-15T10:29:03;99516.91;;;10.72;100.00
60240;BME280;46102;39.012;-7.064;2023-01-15T10:31:16;99519.47;;;10.82;100.00
60240;BME280;46102;39.012;-7.064;2023-01-15T10:40:14;99506.28;;;11.22;100.00
60240;BME280;46102;39.012;-7.064;2023-01-15T10:45:01;99499.25;;;11.81;100.00
60240;BME280;46102;39.012;-7.064;2023-01-15T10:47:11;99497.78;;;12.03;100.00
60240;BME280;46102;39.012;-7.064;2023-01-15T10:49:16;99489.75;;;12.20;100.00
60240;BME280;46102;39.012;-7.064;2023-01-15T10:53:33;99493.00;;;12.50;98.11
60240;BME280;46102;39.012;-7.064;2023-01-15T10:55:41;99496.75;;;12.82;96.13
60240;BME280;46102;39.012;-7.064;2023-01-15T10:57:52;99493.09;;;13.09;92.80
60240;BME280;46102;39.012;-7.064;2023-01-15T10:59:55;99498.75;;;13.26;93.56
60240;BME280;46102;39.012;-7.064;2023-01-15T11:01:58;99497.50;;;13.55;92.76
60240;BME280;46102;39.012;-7.064;2023-01-15T11:03:59;99503.72;;;13.61;90.26
60240;BME280;46102;39.012;-7.064;2023-01-15T11:06:00;99507.50;;;13.65;89.96
60240;BME280;46102;39.012;-7.064;2023-01-15T11:08:04;99513.75;;;13.79;90.24
60240;BME280;46102;39.012;-7.064;2023-01-15T11:10:09;99505.63;;;14.05;87.05
60240;BME280;46102;39.012;-7.064;2023-01-15T11:12:22;99506.06;;;13.99;86.61
60240;BME280;46102;39.012;-7.064;2023-01-15T11:14:36;99513.16;;;13.91;85.24
60240;BME280;46102;39.012;-7.064;2023-01-15T11:16:55;99509.75;;;13.63;87.15
60240;BME280;46102;39.012;-7.064;2023-01-15T11:19:28;99507.72;;;13.54;87.42
60240;BME280;46102;39.012;-7.064;2023-01-15T11:21:40;99508.31;;;13.65;86.84
60240;BME280;46102;39.012;-7.064;2023-01-15T11:23:42;99504.81;;;13.82;85.96
60240;BME280;46102;39.012;-7.064;2023-01-15T11:25:49;99508.19;;;14.02;84.48